sensor_id;sensor_type;location;lat;lon;timestamp;pressure;altitude;pressure_sealevel;temperature;humidity
61205;BME280;47068;55.780;37.520;2022-07-23T00:00:54;99852.22;;;19.83;62.58
61205;BME280;47068;55.780;37.520;2022-07-23T00:03:20;99853.88;;;19.84;62.38
61205;BME280;47068;55.780;37.520;2022-07-23T00:05:45;99858.00;;;19.87;62.10
61205;BME280;47068;55.780;37.520;2022-07-23T00:08:10;99863.84;;;19.84;62.92
61205;BME280;47068;55.780;37.520;2022-07-23T00:10:37;99855.81;;;19.77;63.78
61205;BME280;47068;55.780;37.520;2022-07-23T00:13:02;99860.19;;;19.72;64.61
61205;BME280;47068;55.780;37.520;2022-07-23T00:15:28;99864.44;;;19.61;64.63
61205;BME280;47068;55.780;37.520;2022-07-23T00:17:56;99843.31;;;19.45;65.44
61205;BME280;47068;55.780;37.520;2022-07-23T00:20:21;99868.63;;;19.50;65.84
61205;BME280;47068;55.780;37.520;2022-07-23T00:22:52;99862.84;;;19.47;65.59
61205;BME280;47068;55.780;37.520;2022-07-23T00:25:19;99873.88;;;19.39;65.70
61205;BME280;47068;55.780;37.520;2022-07-23T00:27:44;99846.81;;;19.20;66.11
61205;BME280;47068;55.780;37.520;2022-07-23T00:30:12;99873.09;;;19.32;66.22
61205;BME280;47068;55.780;37.520;2022-07-23T00:33:06;99866.91;;;19.24;65.97
61205;BME280;47068;55.780;37.520;2022-07-23T00:35:34;99857.22;;;19.10;66.53
61205;BME280;47068;55.780;37.520;2022-07-23T00:38:00;99868.59;;;19.19;66.26
61205;BME280;47068;55.780;37.520;2022-07-23T00:40:27;99876.47;;;19.20;66.22
61205;BME280;47068;55.780;37.520;2022-07-23T00:42:53;99874.38;;;19.22;66.06
61205;BME280;47068;55.780;37.520;2022-07-23T00:45:19;99871.66;;;19.22;66.09
61205;BME280;47068;55.780;37.520;2022-07-23T00:47:45;99861.56;;;19.11;65.92
61205;BME280;47068;55.780;37.520;2022-07-23T00:50:10;99874.59;;;19.21;65.86
61205;BME280;47068;55.780;37.520;2022-07-23T00:52:37;99879.59;;;19.17;66.11
61205;BME280;47068;55.780;37.520;2022-07-23T00:55:04;99885.84;;;19.11;67.01
61205;BME280;47068;55.780;37.520;2022-07-23T00:57:29;99882.97;;;19.06;67.21
61205;BME280;47068;55.780;37.520;2022-07-23T00:59:55;99883.84;;;19.00;67.54
61205;BME280;47068;55.780;37.520;2022-07-23T01:02:23;99870.41;;;18.87;67.19
61205;BME280;47068;55.780;37.520;2022-07-23T01:04:49;99877.22;;;18.89;67.33
61205;BME280;47068;55.780;37.520;2022-07-23T01:07:15;99879.72;;;18.84;67.92
61205;BME280;47068;55.780;37.520;2022-07-23T01:09:40;99883.09;;;18.80;68.03
61205;BME280;47068;55.780;37.520;2022-07-23T01:12:05;99889.91;;;18.76;68.13
61205;BME280;47068;55.780;37.520;2022-07-23T01:14:32;99872.75;;;18.64;68.00
61205;BME280;47068;55.780;37.520;2022-07-23T01:16:57;99857.84;;;18.48;68.06
61205;BME280;47068;55.780;37.520;2022-07-23T01:19:22;99885.81;;;18.67;68.64
61205;BME280;47068;55.780;37.520;2022-07-23T01:21:50;99886.03;;;18.65;68.70
61205;BME280;47068;55.780;37.520;2022-07-23T01:24:17;99886.03;;;18.65;68.81
61205;BME280;47068;55.780;37.520;2022-07-23T01:26:45;99856.59;;;18.50;68.13
61205;BME280;47068;55.780;37.520;2022-07-23T01:29:11;99890.16;;;18.68;68.39
61205;BME280;47068;55.780;37.520;2022-07-23T01:31:37;99888.50;;;18.67;68.59
61205;BME280;47068;55.780;37.520;2022-07-23T01:34:03;99887.44;;;18.68;68.69
61205;BME280;47068;55.780;37.520;2022-07-23T01:36:29;99886.41;;;18.69;68.98
61205;BME280;47068;55.780;37.520;2022-07-23T01:38:55;99884.75;;;18.68;69.02
61205;BME280;47068;55.780;37.520;2022-07-23T01:41:20;99876.06;;;18.66;68.76
61205;BME280;47068;55.780;37.520;2022-07-23T01:43:46;99880.22;;;18.62;69.03
61205;BME280;47068;55.780;37.520;2022-07-23T01:46:12;99848.72;;;18.42;69.05
61205;BME280;47068;55.780;37.520;2022-07-23T01:48:38;99880.63;;;18.65;68.67
61205;BME280;47068;55.780;37.520;2022-07-23T01:51:03;99877.94;;;18.65;69.24
61205;BME280;47068;55.780;37.520;2022-07-23T01:53:29;99876.28;;;18.64;68.84
61205;BME280;47068;55.780;37.520;2022-07-23T01:56:00;99867.59;;;18.56;69.20
61205;BME280;47068;55.780;37.520;2022-07-23T01:58:26;99883.13;;;18.67;69.14
61205;BME280;47068;55.780;37.520;2022-07-23T02:00:53;99881.03;;;18.69;69.29
61205;BME280;47068;55.780;37.520;2022-07-23T02:03:18;99883.13;;;18.67;68.93
61205;BME280;47068;55.780;37.520;2022-07-23T02:05:44;99890.59;;;18.65;69.42
61205;BME280;47068;55.780;37.520;2022-07-23T02:08:09;99870.91;;;18.58;69.31
61205;BME280;47068;55.780;37.520;2022-07-23T02:10:35;99858.84;;;18.54;69.78
61205;BME280;47068;55.780;37.520;2022-07-23T02:13:01;99867.38;;;18.50;69.65
61205;BME280;47068;55.780;37.520;2022-07-23T02:15:26;99875.66;;;18.56;69.77
61205;BME280;47068;55.780;37.520;2022-07-23T02:17:53;99877.34;;;18.57;69.93
61205;BME280;47068;55.780;37.520;2022-07-23T02:20:19;99881.69;;;18.58;70.34
61205;BME280;47068;55.780;37.520;2022-07-23T02:22:44;99875.66;;;18.56;70.47
61205;BME280;47068;55.780;37.520;2022-07-23T02:25:10;99881.69;;;18.58;70.79
61205;BME280;47068;55.780;37.520;2022-07-23T02:27:36;99876.47;;;18.63;70.73
61205;BME280;47068;55.780;37.520;2022-07-23T02:30:02;99880.00;;;18.63;70.56
61205;BME280;47068;55.780;37.520;2022-07-23T02:32:28;99883.53;;;18.64;70.44
61205;BME280;47068;55.780;37.520;2022-07-23T02:34:53;99888.91;;;18.64;70.44
61205;BME280;47068;55.780;37.520;2022-07-23T02:37:19;99884.78;;;18.61;70.65
61205;BME280;47068;55.780;37.520;2022-07-23T02:39:44;99881.88;;;18.63;70.70
61205;BME280;47068;55.780;37.520;2022-07-23T02:42:10;99886.22;;;18.64;70.61
61205;BME280;47068;55.780;37.520;2022-07-23T02:44:35;99855.56;;;18.52;70.77
61205;BME280;47068;55.780;37.520;2022-07-23T02:47:01;99873.78;;;18.63;70.73
61205;BME280;47068;55.780;37.520;2022-07-23T02:49:26;99880.81;;;18.70;71.35
61205;BME280;47068;55.780;37.520;2022-07-23T02:51:52;99885.16;;;18.71;71.14
61205;BME280;47068;55.780;37.520;2022-07-23T02:54:18;99885.78;;;18.73;70.72
61205;BME280;47068;55.780;37.520;2022-07-23T02:56:43;99879.34;;;18.74;71.00
61205;BME280;47068;55.780;37.520;2022-07-23T02:59:09;99882.63;;;18.83;70.48
61205;BME280;47068;55.780;37.520;2022-07-23T03:01:35;99883.44;;;18.90;70.13
61205;BME280;47068;55.780;37.520;2022-07-23T03:04:00;99880.13;;;18.95;69.98
61205;BME280;47068;55.780;37.520;2022-07-23T03:06:26;99881.97;;;19.01;69.89
61205;BME280;47068;55.780;37.520;2022-07-23T03:08:51;99868.28;;;18.96;69.65
61205;BME280;47068;55.780;37.520;2022-07-23T03:11:17;99890.19;;;19.12;69.63
61205;BME280;47068;55.780;37.520;2022-07-23T03:13:42;99889.97;;;19.20;69.21
61205;BME280;47068;55.780;37.520;2022-07-23T03:16:08;99895.13;;;19.28;68.65
61205;BME280;47068;55.780;37.520;2022-07-23T03:18:33;99892.38;;;19.35;68.58
61205;BME280;47068;55.780;37.520;2022-07-23T03:20:59;99880.50;;;19.36;68.48
61205;BME280;47068;55.780;37.520;2022-07-23T03:23:25;99900.81;;;19.45;67.96
61205;BME280;47068;55.780;37.520;2022-07-23T03:25:50;99893.16;;;19.49;68.99
61205;BME280;47068;55.780;37.520;2022-07-23T03:28:17;99897.69;;;19.55;68.50
61205;BME280;47068;55.780;37.520;2022-07-23T03:30:44;99893.91;;;19.62;68.33
61205;BME280;47068;55.780;37.520;2022-07-23T03:33:12;99891.59;;;19.66;67.63
61205;BME280;47068;55.780;37.520;2022-07-23T03:35:38;99890.25;;;19.82;67.29
61205;BME280;47068;55.780;37.520;2022-07-23T03:38:03;99884.63;;;19.83;67.14
61205;BME280;47068;55.780;37.520;2022-07-23T03:40:29;99892.16;;;19.99;66.90
61205;BME280;47068;55.780;37.520;2022-07-23T03:42:54;99885.72;;;20.00;66.82
61205;BME280;47068;55.780;37.520;2022-07-23T03:45:20;99898.06;;;20.15;66.78
61205;BME280;47068;55.780;37.520;2022-07-23T03:47:45;99884.28;;;20.23;66.54
61205;BME280;47068;55.780;37.520;2022-07-23T03:50:11;99872.03;;;20.20;66.24
61205;BME280;47068;55.780;37.520;2022-07-23T03:52:36;99872.22;;;20.25;65.94
61205;BME280;47068;55.780;37.520;2022-07-23T03:55:02;99891.19;;;20.43;65.74
61205;BME280;47068;55.780;37.520;2022-07-23T03:57:27;99892.78;;;20.51;66.06
61205;BME280;47068;55.780;37.520;2022-07-23T03:59:53;99893.53;;;20.58;65.63
61205;BME280;47068;55.780;37.520;2022-07-23T04:02:18;99892.63;;;20.64;64.95
61205;BME280;47068;55.780;37.520;2022-07-23T04:04:44;99894.56;;;20.75;64.58
61205;BME280;47068;55.780;37.520;2022-07-23T04:07:09;99887.97;;;20.90;64.55
61205;BME280;47068;55.780;37.520;2022-07-23T04:09:34;99890.97;;;21.00;64.37
61205;BME280;47068;55.780;37.520;2022-07-23T04:12:00;99893.97;;;21.10;63.52
61205;BME280;47068;55.780;37.520;2022-07-23T04:14:26;99886.63;;;21.17;63.18
61205;BME280;47068;55.780;37.520;2022-07-23T04:16:51;99897.75;;;21.27;62.85
61205;BME280;47068;55.780;37.520;2022-07-23T04:19:17;99895.91;;;21.39;62.57
61205;BME280;47068;55.780;37.520;2022-07-23T04:21:42;99888.06;;;21.49;62.45
61205;BME280;47068;55.780;37.520;2022-07-23T04:24:07;99895.06;;;21.69;62.46
61205;BME280;47068;55.780;37.520;2022-07-23T04:26:33;99895.94;;;21.92;62.48
61205;BME280;47068;55.780;37.520;2022-07-23T04:29:00;99894.00;;;22.23;61.25
61205;BME280;47068;55.780;37.520;2022-07-23T04:31:26;99888.13;;;22.61;59.77
61205;BME280;47068;55.780;37.520;2022-07-23T04:33:51;99898.91;;;23.07;58.11
61205;BME280;47068;55.780;37.520;2022-07-23T04:36:17;99896.22;;;23.36;57.98
61205;BME280;47068;55.780;37.520;2022-07-23T04:38:42;99899.94;;;23.75;57.13
61205;BME280;47068;55.780;37.520;2022-07-23T04:41:07;99895.34;;;24.09;54.65
61205;BME280;47068;55.780;37.520;2022-07-23T04:43:33;99903.81;;;24.62;51.92
61205;BME280;47068;55.780;37.520;2022-07-23T04:45:59;99891.81;;;24.58;52.58
61205;BME280;47068;55.780;37.520;2022-07-23T04:48:24;99890.22;;;24.62;53.55
61205;BME280;47068;55.780;37.520;2022-07-23T04:50:50;99879.28;;;24.57;52.60
61205;BME280;47068;55.780;37.520;2022-07-23T04:53:15;99884.78;;;24.62;51.91
61205;BME280;47068;55.780;37.520;2022-07-23T04:55:41;99885.41;;;24.69;51.36
61205;BME280;47068;55.780;37.520;2022-07-23T04:58:06;99881.09;;;24.90;49.33
61205;BME280;47068;55.780;37.520;2022-07-23T05:00:32;99874.47;;;25.03;50.11
61205;BME280;47068;55.780;37.520;2022-07-23T05:02:57;99876.19;;;25.36;48.75
61205;BME280;47068;55.780;37.520;2022-07-23T05:05:23;99882.47;;;25.90;47.98
61205;BME280;47068;55.780;37.520;2022-07-23T05:07:48;99868.31;;;26.67;45.72
61205;BME280;47068;55.780;37.520;2022-07-23T05:10:14;99866.22;;;27.57;42.86
61205;BME280;47068;55.780;37.520;2022-07-23T05:12:39;99854.19;;;28.03;42.29
61205;BME280;47068;55.780;37.520;2022-07-23T05:15:05;99865.13;;;28.29;42.43
61205;BME280;47068;55.780;37.520;2022-07-23T05:17:30;99865.34;;;28.68;40.42
61205;BME280;47068;55.780;37.520;2022-07-23T05:19:56;99864.28;;;28.53;40.30
61205;BME280;47068;55.780;37.520;2022-07-23T05:22:21;99862.09;;;28.45;41.37
61205;BME280;47068;55.780;37.520;2022-07-23T05:24:46;99860.22;;;28.10;41.98
61205;BME280;47068;55.780;37.520;2022-07-23T05:27:12;99864.88;;;27.95;42.48
61205;BME280;47068;55.780;37.520;2022-07-23T05:29:37;99856.66;;;27.95;41.08
61205;BME280;47068;55.780;37.520;2022-07-23T05:32:03;99863.22;;;27.89;42.08
61205;BME280;47068;55.780;37.520;2022-07-23T05:34:28;99864.88;;;28.10;41.10
61205;BME280;47068;55.780;37.520;2022-07-23T05:36:54;99867.34;;;27.91;42.29
61205;BME280;47068;55.780;37.520;2022-07-23T05:39:19;99858.84;;;27.88;42.36
61205;BME280;47068;55.780;37.520;2022-07-23T05:41:45;99863.78;;;28.16;41.32
61205;BME280;47068;55.780;37.520;2022-07-23T05:44:10;99858.22;;;28.56;40.34
61205;BME280;47068;55.780;37.520;2022-07-23T05:46:36;99865.31;;;29.42;39.15
61205;BME280;47068;55.780;37.520;2022-07-23T05:49:01;99850.97;;;29.94;38.04
61205;BME280;47068;55.780;37.520;2022-07-23T05:51:27;99854.53;;;30.24;37.67
61205;BME280;47068;55.780;37.520;2022-07-23T05:53:52;99853.97;;;30.27;37.79
61205;BME280;47068;55.780;37.520;2022-07-23T05:56:18;99845.41;;;30.33;37.39
61205;BME280;47068;55.780;37.520;2022-07-23T05:58:44;99843.94;;;30.41;37.92
61205;BME280;47068;55.780;37.520;2022-07-23T06:01:10;99838.59;;;30.55;37.84
61205;BME280;47068;55.780;37.520;2022-07-23T06:03:37;99860.56;;;30.78;35.32
61205;BME280;47068;55.780;37.520;2022-07-23T06:06:04;99847.66;;;30.26;35.85
61205;BME280;47068;55.780;37.520;2022-07-23T06:08:29;99845.44;;;29.99;36.71
61205;BME280;47068;55.780;37.520;2022-07-23T06:10:55;99835.53;;;29.20;37.41
61205;BME280;47068;55.780;37.520;2022-07-23T06:13:20;99834.56;;;29.01;39.04
61205;BME280;47068;55.780;37.520;2022-07-23T06:15:46;99846.63;;;29.49;39.29
61205;BME280;47068;55.780;37.520;2022-07-23T06:18:12;99834.19;;;30.01;37.85
61205;BME280;47068;55.780;37.520;2022-07-23T06:20:37;99840.94;;;30.66;35.99
61205;BME280;47068;55.780;37.520;2022-07-23T06:23:03;99843.38;;;31.34;35.02
61205;BME280;47068;55.780;37.520;2022-07-23T06:25:29;99838.06;;;31.94;33.21
61205;BME280;47068;55.780;37.520;2022-07-23T06:27:54;99830.66;;;32.08;34.16
61205;BME280;47068;55.780;37.520;2022-07-23T06:30:20;99804.31;;;32.62;32.74
61205;BME280;47068;55.780;37.520;2022-07-23T06:32:46;99837.72;;;33.73;31.43
61205;BME280;47068;55.780;37.520;2022-07-23T06:35:12;99835.16;;;35.17;28.98
61205;BME280;47068;55.780;37.520;2022-07-23T06:37:37;99832.31;;;36.76;26.43
61205;BME280;47068;55.780;37.520;2022-07-23T06:40:03;99824.75;;;37.15;25.28
61205;BME280;47068;55.780;37.520;2022-07-23T06:42:29;99823.97;;;38.21;24.04
61205;BME280;47068;55.780;37.520;2022-07-23T06:44:54;99824.63;;;39.00;22.43
61205;BME280;47068;55.780;37.520;2022-07-23T06:47:20;99807.91;;;39.80;21.75
61205;BME280;47068;55.780;37.520;2022-07-23T06:49:45;99821.69;;;41.49;20.19
61205;BME280;47068;55.780;37.520;2022-07-23T06:52:11;99822.63;;;42.67;18.78
61205;BME280;47068;55.780;37.520;2022-07-23T06:54:36;99827.47;;;43.83;17.41
61205;BME280;47068;55.780;37.520;2022-07-23T06:57:02;99823.94;;;44.70;17.01
61205;BME280;47068;55.780;37.520;2022-07-23T06:59:27;99816.06;;;44.94;16.46
61205;BME280;47068;55.780;37.520;2022-07-23T07:01:53;99807.88;;;45.36;16.55
61205;BME280;47068;55.780;37.520;2022-07-23T07:04:18;99813.75;;;46.18;15.64
61205;BME280;47068;55.780;37.520;2022-07-23T07:06:44;99800.81;;;45.71;15.26
61205;BME280;47068;55.780;37.520;2022-07-23T07:09:09;99815.13;;;45.44;16.34
61205;BME280;47068;55.780;37.520;2022-07-23T07:11:35;99812.50;;;45.04;15.43
61205;BME280;47068;55.780;37.520;2022-07-23T07:14:00;99809.72;;;43.72;17.43
61205;BME280;47068;55.780;37.520;2022-07-23T07:16:26;99802.00;;;42.75;18.13
61205;BME280;47068;55.780;37.520;2022-07-23T07:18:51;99804.25;;;42.66;18.58
61205;BME280;47068;55.780;37.520;2022-07-23T07:21:17;99807.72;;;42.82;17.61
61205;BME280;47068;55.780;37.520;2022-07-23T07:23:42;99793.53;;;43.25;17.41
61205;BME280;47068;55.780;37.520;2022-07-23T07:26:08;99796.84;;;43.34;17.44
61205;BME280;47068;55.780;37.520;2022-07-23T07:28:34;99810.97;;;44.11;16.87
61205;BME280;47068;55.780;37.520;2022-07-23T07:30:59;99797.44;;;45.40;15.38
61205;BME280;47068;55.780;37.520;2022-07-23T07:33:25;99792.03;;;46.57;14.34
61205;BME280;47068;55.780;37.520;2022-07-23T07:35:51;99796.47;;;46.73;13.46
61205;BME280;47068;55.780;37.520;2022-07-23T07:38:16;99790.44;;;46.53;13.45
61205;BME280;47068;55.780;37.520;2022-07-23T07:40:41;99787.84;;;45.41;14.52
61205;BME280;47068;55.780;37.520;2022-07-23T07:43:07;99797.19;;;47.99;13.48
61205;BME280;47068;55.780;37.520;2022-07-23T07:45:33;99799.44;;;49.42;12.40
61205;BME280;47068;55.780;37.520;2022-07-23T07:47:58;99794.41;;;50.37;11.80
61205;BME280;47068;55.780;37.520;2022-07-23T07:50:26;99793.63;;;48.88;12.48
61205;BME280;47068;55.780;37.520;2022-07-23T07:52:52;99790.09;;;49.48;12.27
61205;BME280;47068;55.780;37.520;2022-07-23T07:55:17;99786.41;;;46.72;13.10
61205;BME280;47068;55.780;37.520;2022-07-23T07:57:43;99779.59;;;42.26;16.78
61205;BME280;47068;55.780;37.520;2022-07-23T08:00:09;99788.84;;;41.65;18.37
61205;BME280;47068;55.780;37.520;2022-07-23T08:02:48;99783.88;;;42.92;16.75
61205;BME280;47068;55.780;37.520;2022-07-23T08:05:14;99791.13;;;44.30;15.60
61205;BME280;47068;55.780;37.520;2022-07-23T08:07:42;99785.31;;;45.15;14.50
61205;BME280;47068;55.780;37.520;2022-07-23T08:10:08;99776.75;;;44.97;15.53
61205;BME280;47068;55.780;37.520;2022-07-23T08:12:43;99775.56;;;44.98;16.02
61205;BME280;47068;55.780;37.520;2022-07-23T08:15:10;99778.81;;;43.65;16.71
61205;BME280;47068;55.780;37.520;2022-07-23T08:17:36;99772.59;;;42.36;17.85
61205;BME280;47068;55.780;37.520;2022-07-23T08:20:06;99763.63;;;40.06;20.55
61205;BME280;47068;55.780;37.520;2022-07-23T08:22:59;99774.06;;;38.86;21.60
61205;BME280;47068;55.780;37.520;2022-07-23T08:25:27;99778.94;;;38.28;22.53
61205;BME280;47068;55.780;37.520;2022-07-23T08:27:54;99776.44;;;37.16;23.35
61205;BME280;47068;55.780;37.520;2022-07-23T08:30:20;99773.44;;;35.95;24.06
61205;BME280;47068;55.780;37.520;2022-07-23T08:32:50;99774.81;;;35.54;25.85
61205;BME280;47068;55.780;37.520;2022-07-23T08:35:17;99776.72;;;35.02;27.03
61205;BME280;47068;55.780;37.520;2022-07-23T08:37:43;99772.91;;;34.72;27.50
61205;BME280;47068;55.780;37.520;2022-07-23T08:40:09;99758.19;;;33.75;28.40
61205;BME280;47068;55.780;37.520;2022-07-23T08:42:38;99770.09;;;33.40;29.09
61205;BME280;47068;55.780;37.520;2022-07-23T08:45:03;99770.91;;;31.62;29.83
61205;BME280;47068;55.780;37.520;2022-07-23T08:47:29;99777.28;;;31.02;33.39
61205;BME280;47068;55.780;37.520;2022-07-23T08:49:56;99765.78;;;31.00;33.12
61205;BME280;47068;55.780;37.520;2022-07-23T08:52:24;99752.72;;;30.49;34.13
61205;BME280;47068;55.780;37.520;2022-07-23T08:54:49;99761.06;;;30.39;34.46
61205;BME280;47068;55.780;37.520;2022-07-23T08:57:15;99759.53;;;30.04;33.80
61205;BME280;47068;55.780;37.520;2022-07-23T08:59:41;99753.59;;;29.63;35.86
61205;BME280;47068;55.780;37.520;2022-07-23T09:02:06;99763.19;;;29.94;34.28
61205;BME280;47068;55.780;37.520;2022-07-23T09:04:32;99763.19;;;29.94;35.36
61205;BME280;47068;55.780;37.520;2022-07-23T09:06:58;99756.63;;;29.90;35.64
61205;BME280;47068;55.780;37.520;2022-07-23T09:09:24;99760.53;;;29.84;35.67
61205;BME280;47068;55.780;37.520;2022-07-23T09:12:07;99762.16;;;29.85;35.45
61205;BME280;47068;55.780;37.520;2022-07-23T09:14:51;99758.81;;;29.88;35.07
61205;BME280;47068;55.780;37.520;2022-07-23T09:17:17;99753.69;;;29.82;35.64
61205;BME280;47068;55.780;37.520;2022-07-23T09:19:44;99751.81;;;29.77;35.76
61205;BME280;47068;55.780;37.520;2022-07-23T09:22:24;99763.53;;;29.54;35.84
61205;BME280;47068;55.780;37.520;2022-07-23T09:25:08;99765.00;;;29.41;36.44
61205;BME280;47068;55.780;37.520;2022-07-23T09:30:22;99764.19;;;29.41;36.41
61205;BME280;47068;55.780;37.520;2022-07-23T09:33:23;99763.75;;;29.23;36.99
61205;BME280;47068;55.780;37.520;2022-07-23T09:35:53;99762.09;;;29.22;37.04
61205;BME280;47068;55.780;37.520;2022-07-23T09:38:21;99758.25;;;29.23;37.18
61205;BME280;47068;55.780;37.520;2022-07-23T09:41:04;99757.44;;;29.23;37.40
61205;BME280;47068;55.780;37.520;2022-07-23T09:43:31;99752.88;;;29.08;37.69
61205;BME280;47068;55.780;37.520;2022-07-23T09:46:26;99745.28;;;28.95;37.99
61205;BME280;47068;55.780;37.520;2022-07-23T09:48:53;99742.25;;;29.02;38.73
61205;BME280;47068;55.780;37.520;2022-07-23T09:51:19;99741.59;;;29.15;38.80
61205;BME280;47068;55.780;37.520;2022-07-23T09:53:54;99730.31;;;29.21;38.24
61205;BME280;47068;55.780;37.520;2022-07-23T09:56:20;99743.06;;;29.41;38.05
61205;BME280;47068;55.780;37.520;2022-07-23T09:58:49;99757.03;;;29.45;37.49
61205;BME280;47068;55.780;37.520;2022-07-23T10:01:16;99745.34;;;29.29;38.32
61205;BME280;47068;55.780;37.520;2022-07-23T10:03:42;99747.78;;;29.30;38.53
61205;BME280;47068;55.780;37.520;2022-07-23T10:06:12;99746.44;;;29.28;37.47
61205;BME280;47068;55.780;37.520;2022-07-23T10:08:40;99738.81;;;29.20;38.88
61205;BME280;47068;55.780;37.520;2022-07-23T10:11:08;99723.53;;;29.14;37.58
61205;BME280;47068;55.780;37.520;2022-07-23T10:13:34;99742.31;;;29.35;36.12
61205;BME280;47068;55.780;37.520;2022-07-23T10:16:19;99740.56;;;29.11;36.76
61205;BME280;47068;55.780;37.520;2022-07-23T10:18:46;99738.09;;;29.09;37.15
61205;BME280;47068;55.780;37.520;2022-07-23T10:21:18;99738.91;;;29.10;37.89
61205;BME280;47068;55.780;37.520;2022-07-23T10:23:58;99741.66;;;29.10;36.87
61205;BME280;47068;55.780;37.520;2022-07-23T10:26:37;99735.38;;;29.04;37.82
61205;BME280;47068;55.780;37.520;2022-07-23T10:32:02;99721.25;;;28.87;38.44
61205;BME280;47068;55.780;37.520;2022-07-23T10:35:44;99717.72;;;28.81;37.80
61205;BME280;47068;55.780;37.520;2022-07-23T10:37:42;99719.06;;;28.84;37.62
61205;BME280;47068;55.780;37.520;2022-07-23T10:40:10;99712.47;;;28.85;37.05
61205;BME280;47068;55.780;37.520;2022-07-23T10:42:36;99710.06;;;28.83;37.41
61205;BME280;47068;55.780;37.520;2022-07-23T10:45:39;99699.09;;;28.78;38.41
61205;BME280;47068;55.780;37.520;2022-07-23T10:48:19;99705.41;;;28.79;38.75
61205;BME280;47068;55.780;37.520;2022-07-23T10:51:15;99700.50;;;28.71;39.04
61205;BME280;47068;55.780;37.520;2022-07-23T10:53:56;99701.59;;;28.75;39.33
61205;BME280;47068;55.780;37.520;2022-07-23T10:59:21;99697.31;;;29.03;38.09
61205;BME280;47068;55.780;37.520;2022-07-23T11:01:48;99699.19;;;29.07;37.30
61205;BME280;47068;55.780;37.520;2022-07-23T11:04:14;99694.59;;;28.97;38.93
61205;BME280;47068;55.780;37.520;2022-07-23T11:09:38;99691.66;;;28.89;36.14
61205;BME280;47068;55.780;37.520;2022-07-23T11:17:22;99686.88;;;29.05;37.68
61205;BME280;47068;55.780;37.520;2022-07-23T11:25:29;99689.53;;;28.71;39.56
61205;BME280;47068;55.780;37.520;2022-07-23T11:27:56;99691.53;;;28.60;39.33
61205;BME280;47068;55.780;37.520;2022-07-23T11:35:34;99659.72;;;28.20;40.59
61205;BME280;47068;55.780;37.520;2022-07-23T11:40:30;99669.53;;;28.26;37.55
61205;BME280;47068;55.780;37.520;2022-07-23T11:43:01;99677.88;;;28.50;36.46
61205;BME280;47068;55.780;37.520;2022-07-23T11:47:57;99665.88;;;28.46;37.32
61205;BME280;47068;55.780;37.520;2022-07-23T11:50:24;99670.22;;;28.52;37.26
61205;BME280;47068;55.780;37.520;2022-07-23T11:52:50;99666.56;;;28.67;36.69
61205;BME280;47068;55.780;37.520;2022-07-23T11:55:16;99670.13;;;28.67;36.10
61205;BME280;47068;55.780;37.520;2022-07-23T11:57:42;99669.03;;;28.63;35.16
61205;BME280;47068;55.780;37.520;2022-07-23T12:00:10;99654.31;;;28.59;36.96
61205;BME280;47068;55.780;37.520;2022-07-23T12:02:38;99660.75;;;28.34;37.26
61205;BME280;47068;55.780;37.520;2022-07-23T12:05:04;99645.66;;;28.37;37.44
61205;BME280;47068;55.780;37.520;2022-07-23T12:07:35;99644.81;;;28.46;37.53
61205;BME280;47068;55.780;37.520;2022-07-23T12:10:23;99661.13;;;28.62;37.03
61205;BME280;47068;55.780;37.520;2022-07-23T12:12:52;99656.16;;;28.69;36.89
61205;BME280;47068;55.780;37.520;2022-07-23T12:15:23;99655.31;;;28.73;37.89
61205;BME280;47068;55.780;37.520;2022-07-23T12:17:51;99646.53;;;28.81;37.71
61205;BME280;47068;55.780;37.520;2022-07-23T12:20:23;99641.28;;;28.85;37.08
61205;BME280;47068;55.780;37.520;2022-07-23T12:22:55;99604.16;;;28.69;37.40
61205;BME280;47068;55.780;37.520;2022-07-23T12:25:29;99629.50;;;28.84;37.89
61205;BME280;47068;55.780;37.520;2022-07-23T12:30:52;99603.56;;;28.72;38.28
61205;BME280;47068;55.780;37.520;2022-07-23T12:33:33;99627.59;;;28.85;37.94
61205;BME280;47068;55.780;37.520;2022-07-23T12:36:02;99634.66;;;28.91;38.60
61205;BME280;47068;55.780;37.520;2022-07-23T12:38:41;99630.81;;;28.92;38.42
61205;BME280;47068;55.780;37.520;2022-07-23T12:41:07;99630.25;;;28.95;38.11
61205;BME280;47068;55.780;37.520;2022-07-23T12:43:36;99621.56;;;28.88;36.09
61205;BME280;47068;55.780;37.520;2022-07-23T12:48:34;99627.06;;;28.83;38.33
61205;BME280;47068;55.780;37.520;2022-07-23T12:51:02;99615.31;;;28.77;39.10
61205;BME280;47068;55.780;37.520;2022-07-23T12:53:30;99616.47;;;28.66;38.96
61205;BME280;47068;55.780;37.520;2022-07-23T12:58:27;99604.38;;;28.72;39.13
61205;BME280;47068;55.780;37.520;2022-07-23T13:01:04;99609.31;;;28.70;39.17
61205;BME280;47068;55.780;37.520;2022-07-23T13:03:41;99612.88;;;28.71;38.86
61205;BME280;47068;55.780;37.520;2022-07-23T13:06:08;99611.81;;;28.67;39.03
61205;BME280;47068;55.780;37.520;2022-07-23T13:08:35;99623.00;;;28.70;36.83
61205;BME280;47068;55.780;37.520;2022-07-23T13:11:03;99617.84;;;28.64;38.63
61205;BME280;47068;55.780;37.520;2022-07-23T13:13:30;99618.25;;;28.47;39.07
61205;BME280;47068;55.780;37.520;2022-07-23T13:15:57;99626.22;;;28.38;39.38
61205;BME280;47068;55.780;37.520;2022-07-23T13:18:24;99615.56;;;28.42;39.27
61205;BME280;47068;55.780;37.520;2022-07-23T13:20:50;99608.72;;;28.39;38.83
61205;BME280;47068;55.780;37.520;2022-07-23T13:23:16;99601.19;;;28.16;39.66
61205;BME280;47068;55.780;37.520;2022-07-23T13:25:42;99613.22;;;28.20;39.58
61205;BME280;47068;55.780;37.520;2022-07-23T13:28:07;99611.31;;;28.15;39.44
61205;BME280;47068;55.780;37.520;2022-07-23T13:30:33;99606.09;;;28.09;39.35
61205;BME280;47068;55.780;37.520;2022-07-23T13:33:00;99603.38;;;28.14;39.49